Time;durP1;ratioP1;P1;durP2;ratioP2;P2;SDS_P1;SDS_P2;PMS_P1;PMS_P2;Temp;Humidity;BMP_temperature;BMP_pressure;BME280_temperature;BME280_humidity;BME280_pressure;Samples;Min_cycle;Max_cycle;Signal;HPM_P1;HPM_P2
2021/03/11 00:00:27;;;;;;;30.65;19.48;;;;;;;6.19;92.34;100053.44;5035056;28;20068;-78
2021/03/11 00:02:52;;;;;;;40.63;22.08;;;;;;;6.20;92.14;100045.84;5035177;28;20514;-80
2021/03/11 00:05:20;;;;;;;35.55;20.92;;;;;;;6.22;92.14;100039.09;5035145;28;20021;-80
2021/03/11 00:07:45;;;;;;;39.17;21.60;;;;;;;6.23;92.19;100040.81;5017459;28;20076;-82
2021/03/11 00:10:12;;;;;;;40.08;22.27;;;;;;;6.23;92.06;100028.06;5017796;28;20530;-78
2021/03/11 00:12:42;;;;;;;40.10;22.73;;;;;;;6.23;92.38;100020.41;5033607;28;20104;-79
2021/03/11 00:15:10;;;;;;;38.13;20.37;;;;;;;6.21;92.18;100004.22;5017096;28;20060;-86
2021/03/11 00:17:36;;;;;;;37.97;21.83;;;;;;;6.22;92.75;100018.69;5034986;28;20049;-80
2021/03/11 00:20:06;;;;;;;34.58;20.98;;;;;;;6.28;92.73;100012.03;5035718;28;20060;-80
2021/03/11 00:22:32;;;;;;;35.80;21.73;;;;;;;6.30;93.02;100007.81;5016164;28;20022;-79
2021/03/11 00:24:57;;;;;;;36.97;22.27;;;;;;;6.28;92.98;100001.81;5034829;28;20040;-81
2021/03/11 00:27:22;;;;;;;38.83;22.20;;;;;;;6.33;92.64;99997.72;5035254;28;20041;-84
2021/03/11 00:29:48;;;;;;;41.70;21.27;;;;;;;6.36;92.67;100000.34;5017198;28;20028;-79
2021/03/11 00:32:13;;;;;;;38.40;21.70;;;;;;;6.34;93.06;99979.88;5016635;28;20280;-79
2021/03/11 00:34:38;;;;;;;37.78;22.38;;;;;;;6.32;93.65;99988.31;5034692;28;20498;-78
2021/03/11 00:37:04;;;;;;;39.47;21.77;;;;;;;6.31;93.92;99979.81;5016862;28;20017;-80
2021/03/11 00:39:29;;;;;;;45.37;22.47;;;;;;;6.33;94.22;99962.00;5034263;28;20749;-78
2021/03/11 00:41:54;;;;;;;47.17;23.92;;;;;;;6.30;94.48;99957.69;5016640;28;20037;-78
2021/03/11 00:44:19;;;;;;;40.87;24.20;;;;;;;6.28;95.06;99944.03;5016666;28;20454;-80
2021/03/11 00:46:45;;;;;;;44.50;24.47;;;;;;;6.31;95.03;99936.44;5034708;28;20108;-82
2021/03/11 00:49:10;;;;;;;52.77;26.27;;;;;;;6.29;95.54;99942.34;5033856;28;20611;-80
2021/03/11 00:51:36;;;;;;;45.95;23.25;;;;;;;6.28;95.74;99941.47;5015787;28;20471;-79
2021/03/11 00:54:01;;;;;;;48.27;26.17;;;;;;;6.26;95.62;99944.81;5016041;28;20106;-77
2021/03/11 00:56:26;;;;;;;42.00;21.98;;;;;;;6.30;95.84;99934.72;5016839;28;20302;-78
2021/03/11 00:58:51;;;;;;;50.67;26.47;;;;;;;6.30;96.03;99927.06;5016781;28;20076;-78
2021/03/11 01:01:17;;;;;;;49.63;26.73;;;;;;;6.32;96.43;99932.22;5016411;28;20029;-82
2021/03/11 01:03:42;;;;;;;47.60;26.02;;;;;;;6.35;96.02;99927.19;5034496;28;20112;-79
2021/03/11 01:06:08;;;;;;;47.67;25.57;;;;;;;6.32;96.21;99922.88;5015785;28;20017;-78
2021/03/11 01:08:33;;;;;;;49.17;24.40;;;;;;;6.36;96.25;99916.16;5017587;28;20795;-82
2021/03/11 01:10:59;;;;;;;47.58;26.35;;;;;;;6.36;96.26;99885.56;5016409;28;20025;-82
2021/03/11 01:13:25;;;;;;;46.40;25.52;;;;;;;6.39;95.92;99888.19;5016505;28;20028;-80
2021/03/11 01:15:50;;;;;;;55.47;26.95;;;;;;;6.39;95.78;99868.63;5034383;28;20045;-81
2021/03/11 01:18:15;;;;;;;45.08;26.00;;;;;;;6.43;95.78;99867.03;5016261;28;20505;-78
2021/03/11 01:20:42;;;;;;;48.47;26.15;;;;;;;6.41;95.69;99840.59;5033514;28;20025;-80
2021/03/11 01:23:07;;;;;;;42.63;25.00;;;;;;;6.47;95.69;99866.25;5034463;28;20508;-78
2021/03/11 01:25:32;;;;;;;51.00;26.58;;;;;;;6.51;95.72;99868.94;5033602;28;20025;-80
2021/03/11 01:27:58;;;;;;;38.70;20.60;;;;;;;6.54;95.65;99851.16;5033636;28;20099;-81
2021/03/11 01:30:23;;;;;;;45.00;22.37;;;;;;;6.55;95.70;99842.69;5015850;28;20025;-80
2021/03/11 01:32:49;;;;;;;48.17;25.63;;;;;;;6.58;95.31;99829.13;5033521;28;20067;-79
2021/03/11 01:35:14;;;;;;;47.55;23.60;;;;;;;6.57;95.48;99827.41;5015861;28;20479;-81
2021/03/11 01:37:40;;;;;;;45.75;25.88;;;;;;;6.62;95.40;99822.41;5016299;28;20494;-80
2021/03/11 01:40:07;;;;;;;45.85;25.48;;;;;;;6.66;95.59;99807.19;5033645;28;20410;-83
2021/03/11 01:42:34;;;;;;;46.93;25.87;;;;;;;6.63;95.50;99812.22;5033632;28;20116;-79
2021/03/11 01:44:59;;;;;;;43.63;25.90;;;;;;;6.65;95.84;99792.72;5016208;28;20033;-83
2021/03/11 01:47:24;;;;;;;47.72;26.50;;;;;;;6.67;95.87;99791.06;5016443;28;20119;-79
2021/03/11 01:49:50;;;;;;;49.08;25.90;;;;;;;6.74;95.55;99799.69;5033936;28;20025;-78
2021/03/11 01:52:16;;;;;;;40.95;24.50;;;;;;;6.73;95.49;99803.09;5015907;28;20563;-78
2021/03/11 01:54:42;;;;;;;43.55;25.02;;;;;;;6.74;95.79;99800.56;5014989;28;20025;-78
2021/03/11 01:57:07;;;;;;;47.28;26.67;;;;;;;6.80;95.42;99780.28;5033599;28;20041;-79
2021/03/11 01:59:33;;;;;;;46.03;26.90;;;;;;;6.83;95.43;99771.84;5033249;28;20389;-82
2021/03/11 02:01:59;;;;;;;41.72;23.65;;;;;;;6.84;95.53;99766.78;5015792;28;20611;-80
2021/03/11 02:04:24;;;;;;;49.30;28.75;;;;;;;6.81;95.46;99756.47;5015278;28;20029;-80
2021/03/11 02:06:51;;;;;;;46.90;25.77;;;;;;;6.88;95.32;99746.41;5015615;28;20059;-80
2021/03/11 02:09:17;;;;;;;50.60;27.63;;;;;;;6.89;95.28;99745.59;5015456;28;20049;-78
2021/03/11 02:12:02;;;;;;;46.72;26.90;;;;;;;6.95;94.97;99732.94;5015178;28;20374;-79
2021/03/11 02:14:41;;;;;;;45.53;26.03;;;;;;;6.96;94.89;99724.44;5033470;28;20033;-80
2021/03/11 02:17:09;;;;;;;49.87;26.57;;;;;;;6.96;95.04;99737.22;5015092;28;20033;-79
2021/03/11 02:19:57;;;;;;;42.53;24.13;;;;;;;7.03;95.02;99731.41;5033275;28;20029;-79
2021/03/11 02:22:28;;;;;;;41.33;22.03;;;;;;;7.11;95.20;99717.06;5032611;28;20034;-81
2021/03/11 02:25:02;;;;;;;39.50;24.23;;;;;;;7.11;94.98;99719.63;5015538;28;20033;-78
2021/03/11 02:27:51;;;;;;;43.27;26.07;;;;;;;7.08;95.25;99711.91;5012673;28;20079;-78
2021/03/11 02:30:17;;;;;;;47.20;25.70;;;;;;;7.08;95.15;99699.16;5013682;28;20041;-77
2021/03/11 02:32:43;;;;;;;43.22;24.23;;;;;;;7.16;95.24;99679.75;5033140;28;20060;-82
2021/03/11 02:35:10;;;;;;;42.15;24.67;;;;;;;7.17;94.93;99663.59;5014018;28;20025;-79
2021/03/11 02:37:49;;;;;;;46.33;25.23;;;;;;;7.20;94.88;99673.00;5015123;28;20029;-80
2021/03/11 02:40:27;;;;;;;43.23;24.60;;;;;;;7.25;94.92;99691.81;5018060;28;20487;-78
2021/03/11 02:42:54;;;;;;;41.77;23.87;;;;;;;7.25;95.09;99696.94;5037420;28;20033;-79
2021/03/11 02:45:25;;;;;;;45.67;25.33;;;;;;;7.25;95.05;99677.34;5018365;28;20045;-80
2021/03/11 02:47:51;;;;;;;48.43;24.10;;;;;;;7.31;94.81;99668.94;5036644;28;20063;-79
2021/03/11 02:50:18;;;;;;;39.97;23.53;;;;;;;7.32;94.75;99633.19;5018441;28;20028;-79
2021/03/11 02:52:45;;;;;;;36.40;21.50;;;;;;;7.41;95.03;99653.78;5017772;28;20033;-80
2021/03/11 02:55:10;;;;;;;;;;;;;;;7.40;94.83;99651.19;5018916;28;20586;-80
2021/03/11 02:57:37;;;;;;;41.47;23.30;;;;;;;7.43;94.79;99656.38;5018654;28;19995;-79
2021/03/11 03:00:07;;;;;;;40.10;23.23;;;;;;;7.41;95.26;99669.09;5018396;28;20020;-79
2021/03/11 03:02:34;;;;;;;40.50;23.43;;;;;;;7.45;95.28;99653.00;5035467;28;20035;-78
2021/03/11 03:05:00;;;;;;;36.73;22.47;;;;;;;7.49;94.94;99629.25;5018488;28;20022;-79
2021/03/11 03:07:27;;;;;;;42.92;23.17;;;;;;;7.45;95.03;99624.88;5018701;28;20079;-79
2021/03/11 03:09:55;;;;;;;38.80;23.63;;;;;;;7.52;95.20;99617.34;5036587;28;20045;-79
2021/03/11 03:12:22;;;;;;;40.87;24.03;;;;;;;7.54;95.31;99623.34;5018776;28;20116;-79
2021/03/11 03:14:49;;;;;;;40.40;23.00;;;;;;;7.59;95.24;99609.81;5035861;28;20029;-80
2021/03/11 03:17:17;;;;;;;36.40;22.00;;;;;;;7.61;94.91;99604.72;5017654;28;20026;-79
2021/03/11 03:19:44;;;;;;;33.73;19.50;;;;;;;7.69;95.07;99587.78;5036626;28;20021;-81
2021/03/11 03:22:10;;;;;;;37.90;22.17;;;;;;;7.66;95.01;99608.19;5035140;28;20136;-78
2021/03/11 03:24:37;;;;;;;37.93;20.87;;;;;;;7.66;95.07;99574.97;5036061;28;20034;-80
2021/03/11 03:27:02;;;;;;;35.20;21.10;;;;;;;7.69;95.14;99577.56;5035967;28;20032;-79
2021/03/11 03:29:28;;;;;;;35.50;21.80;;;;;;;7.73;94.65;99559.72;5018405;28;20120;-78
2021/03/11 03:31:53;;;;;;;30.95;17.90;;;;;;;7.86;94.41;99549.69;5035974;28;20031;-79
2021/03/11 03:34:19;;;;;;;32.20;20.30;;;;;;;7.85;94.28;99548.84;5035864;28;20037;-80
2021/03/11 03:36:44;;;;;;;30.60;19.02;;;;;;;7.93;94.05;99554.91;5017911;28;20072;-78
2021/03/11 03:39:10;;;;;;;28.08;18.35;;;;;;;8.00;93.51;99548.19;5018249;28;20512;-79
2021/03/11 03:41:39;;;;;;;28.60;18.10;;;;;;;8.16;92.62;99532.19;5036160;28;20391;-78
2021/03/11 03:44:06;;;;;;;33.23;17.90;;;;;;;8.20;92.33;99528.84;5017574;28;20037;-80
2021/03/11 03:46:32;;;;;;;26.97;17.43;;;;;;;8.21;92.11;99534.81;5035709;28;20160;-79
2021/03/11 03:48:59;;;;;;;27.60;16.07;;;;;;;8.27;92.00;99512.72;5017867;28;20025;-79
2021/03/11 03:51:31;;;;;;;26.17;16.30;;;;;;;8.35;91.56;99503.44;5016686;28;20052;-79
2021/03/11 03:54:11;;;;;;;23.47;14.70;;;;;;;8.33;91.69;99481.22;5035084;28;20084;-84
2021/03/11 03:56:46;;;;;;;25.70;15.53;;;;;;;8.36;91.48;99491.50;5018372;28;20033;-81
2021/03/11 03:59:15;;;;;;;21.93;14.50;;;;;;;8.37;91.08;99471.06;5017571;28;20512;-84
2021/03/11 04:01:42;;;;;;;22.60;14.63;;;;;;;8.39;91.28;99491.53;5034968;28;20036;-78
2021/03/11 04:04:11;;;;;;;23.17;14.87;;;;;;;8.37;91.54;99480.44;5033913;28;20053;-79
2021/03/11 04:06:38;;;;;;;26.20;14.80;;;;;;;8.42;91.66;99478.78;5035308;28;20021;-78
2021/03/11 04:09:08;;;;;;;24.33;13.87;;;;;;;8.41;91.32;99449.78;5035470;28;20040;-80
2021/03/11 04:11:35;;;;;;;19.57;12.43;;;;;;;8.44;91.17;99461.72;5015151;28;20075;-79
2021/03/11 04:14:02;;;;;;;20.57;13.13;;;;;;;8.49;91.06;99461.81;5034977;28;20033;-78
2021/03/11 04:16:29;;;;;;;25.47;13.37;;;;;;;8.46;91.33;99472.03;5016398;28;20407;-80
2021/03/11 04:18:59;;;;;;;20.30;13.20;;;;;;;8.45;91.19;99453.22;5033595;28;20037;-79
2021/03/11 04:21:25;;;;;;;18.67;12.37;;;;;;;8.47;91.51;99433.66;5016543;28;20021;-81
2021/03/11 04:23:51;;;;;;;20.85;13.25;;;;;;;8.49;91.72;99449.88;5016833;28;20119;-82
2021/03/11 04:26:16;;;;;;;22.92;13.73;;;;;;;8.50;91.71;99451.59;5017293;28;20113;-79
2021/03/11 04:28:43;;;;;;;23.83;13.43;;;;;;;8.44;92.17;99448.94;5017057;28;20071;-83
2021/03/11 04:31:08;;;;;;;22.80;11.63;;;;;;;8.52;91.85;99438.81;5017234;28;20438;-79
2021/03/11 04:33:34;;;;;;;21.40;12.70;;;;;;;8.51;91.74;99448.19;5034719;28;20120;-80
2021/03/11 04:36:01;;;;;;;20.70;12.52;;;;;;;8.57;91.86;99440.56;5016343;28;20044;-79
2021/03/11 04:38:26;;;;;;;23.27;13.07;;;;;;;8.49;92.52;99442.19;5016242;28;20032;-78
2021/03/11 04:40:53;;;;;;;23.70;12.82;;;;;;;8.44;93.14;99459.19;5033371;28;20025;-79
2021/03/11 04:43:19;;;;;;;22.30;11.93;;;;;;;8.48;93.35;99430.25;5016605;28;20030;-81
2021/03/11 04:45:45;;;;;;;;;;;;;;;8.49;93.59;99431.97;5034295;28;20025;-82
2021/03/11 04:48:12;;;;;;;20.70;12.57;;;;;;;8.47;93.99;99431.09;5016773;28;19971;-77
2021/03/11 04:50:39;;;;;;;23.13;12.87;;;;;;;8.50;93.87;99430.25;5033464;28;20053;-83
2021/03/11 04:53:05;;;;;;;23.77;13.57;;;;;;;8.45;94.28;99437.84;5016075;28;20033;-82
2021/03/11 04:55:31;;;;;;;26.00;14.40;;;;;;;8.47;94.58;99446.44;5016538;28;20473;-80
2021/03/11 04:57:56;;;;;;;22.65;14.13;;;;;;;8.43;95.03;99431.88;5034077;28;20041;-80
2021/03/11 05:00:23;;;;;;;25.03;13.63;;;;;;;8.45;94.75;99425.06;5016188;28;20025;-80
2021/03/11 05:02:49;;;;;;;26.47;14.23;;;;;;;8.47;95.04;99433.66;5033569;28;20268;-79
2021/03/11 05:05:28;;;;;;;27.92;13.95;;;;;;;8.44;95.23;99418.22;5015795;28;20032;-79
2021/03/11 05:07:53;;;;;;;25.30;12.60;;;;;;;8.40;95.35;99416.50;5016254;28;20025;-83
2021/03/11 05:10:19;;;;;;;22.93;13.67;;;;;;;8.43;95.43;99417.38;5016904;28;20021;-80
2021/03/11 05:12:45;;;;;;;26.00;13.80;;;;;;;8.42;95.31;99422.47;5016121;28;20047;-81
2021/03/11 05:15:10;;;;;;;25.35;13.52;;;;;;;8.48;95.23;99422.56;5015743;28;20027;-80
2021/03/11 05:17:36;;;;;;;26.73;13.88;;;;;;;8.48;95.27;99391.00;5016411;28;20116;-86
2021/03/11 05:20:01;;;;;;;26.93;13.33;;;;;;;8.48;95.13;99401.22;5015947;28;20402;-78
2021/03/11 05:22:26;;;;;;;25.08;11.82;;;;;;;8.51;94.91;99373.09;5034006;28;20029;-83
2021/03/11 05:24:53;;;;;;;20.30;10.83;;;;;;;8.53;94.82;99389.34;5016134;28;20029;-80
2021/03/11 05:27:19;;;;;;;21.03;12.17;;;;;;;8.57;94.63;99385.94;5033644;28;20291;-84
2021/03/11 05:29:44;;;;;;;24.92;12.55;;;;;;;8.54;94.93;99389.34;5016052;28;20478;-80
2021/03/11 05:32:09;;;;;;;21.17;12.80;;;;;;;8.54;95.13;99389.34;5034096;28;20029;-80
2021/03/11 05:34:34;;;;;;;20.47;11.23;;;;;;;8.56;94.72;99377.41;5016426;28;20268;-79
2021/03/11 05:37:01;;;;;;;20.25;12.20;;;;;;;8.56;94.71;99400.44;5016515;28;20516;-81
2021/03/11 05:39:27;;;;;;;20.33;11.53;;;;;;;8.61;94.81;99370.63;5017043;28;20021;-86
2021/03/11 05:41:53;;;;;;;21.23;12.38;;;;;;;8.57;95.05;99394.47;5015682;28;20403;-80
2021/03/11 05:44:18;;;;;;;23.77;12.60;;;;;;;8.58;95.22;99375.72;5015751;28;20022;-81
2021/03/11 05:46:45;;;;;;;24.48;12.85;;;;;;;8.60;95.02;99397.06;5015757;28;20025;-81
2021/03/11 05:49:11;;;;;;;29.23;12.63;;;;;;;8.55;95.06;99391.06;5015045;28;20112;-80
2021/03/11 05:51:38;;;;;;;19.73;10.73;;;;;;;8.63;94.19;99362.94;5016322;28;20021;-79
2021/03/11 05:54:03;;;;;;;18.43;9.80;;;;;;;8.68;93.64;99367.25;5015808;28;20021;-80
2021/03/11 05:56:30;;;;;;;18.65;8.80;;;;;;;8.72;93.31;99384.34;5016050;28;20032;-82
2021/03/11 05:58:55;;;;;;;;;;;;;;;8.72;93.11;99386.91;5015781;28;20116;-79
2021/03/11 06:01:24;;;;;;;23.33;9.97;;;;;;;8.74;92.56;99382.66;5014727;28;20028;-78
2021/03/11 06:03:52;;;;;;;17.97;8.60;;;;;;;8.74;92.81;99377.53;5031273;28;20031;-80
2021/03/11 06:06:20;;;;;;;19.30;8.20;;;;;;;8.86;92.25;99363.97;5014994;28;20077;-78
2021/03/11 06:08:46;;;;;;;19.20;9.43;;;;;;;8.84;92.01;99357.13;5015167;28;20113;-79
2021/03/11 06:11:16;;;;;;;19.00;9.20;;;;;;;8.86;91.65;99369.09;5015107;28;20100;-79
2021/03/11 06:13:44;;;;;;;19.17;8.90;;;;;;;8.80;91.86;99366.50;5016619;28;20024;-79
2021/03/11 06:16:15;;;;;;;15.47;8.10;;;;;;;8.88;91.27;99356.31;5018841;28;20041;-82
2021/03/11 06:18:41;;;;;;;17.07;6.93;;;;;;;8.85;91.33;99363.97;5019333;28;20040;-79
2021/03/11 06:21:07;;;;;;;;;;;;;;;8.91;91.16;99364.00;5037253;28;20035;-77
2021/03/11 06:23:32;;;;;;;19.57;7.97;;;;;;;8.86;90.57;99353.75;5036584;28;20003;-79
2021/03/11 06:25:58;;;;;;;13.82;6.40;;;;;;;8.85;90.68;99348.63;5017407;28;20491;-79
2021/03/11 06:28:45;;;;;;;21.52;6.88;;;;;;;8.87;90.20;99360.56;5018816;28;20076;-78
2021/03/11 06:31:27;;;;;;;23.33;6.25;;;;;;;8.92;89.87;99340.13;5034205;28;20550;-80
2021/03/11 06:33:54;;;;;;;18.07;6.43;;;;;;;8.98;89.38;99352.94;5017764;28;20429;-79
2021/03/11 06:36:22;;;;;;;14.10;5.07;;;;;;;8.95;88.82;99368.31;5036721;28;20060;-79
2021/03/11 06:38:48;;;;;;;20.50;5.90;;;;;;;9.08;88.30;99343.59;5037850;28;20052;-81
2021/03/11 06:41:14;;;;;;;14.65;5.82;;;;;;;9.06;88.32;99351.28;5036722;28;20057;-83
2021/03/11 06:43:57;;;;;;;10.60;4.80;;;;;;;9.03;87.76;99344.44;5036617;28;20032;-80
2021/03/11 06:46:25;;;;;;;16.53;5.63;;;;;;;8.98;88.05;99340.16;5018460;28;20033;-79
2021/03/11 06:49:04;;;;;;;15.37;4.77;;;;;;;9.04;87.21;99332.50;5017895;28;20108;-79
2021/03/11 06:51:30;;;;;;;15.50;4.73;;;;;;;9.17;86.31;99329.16;5036419;28;20132;-82
2021/03/11 06:54:00;;;;;;;17.47;4.43;;;;;;;9.23;85.79;99339.44;5019141;28;20075;-79
2021/03/11 06:56:26;;;;;;;22.20;5.00;;;;;;;9.31;84.40;99332.63;5036646;28;20300;-79
2021/03/11 06:58:58;;;;;;;;;;;;;;;9.39;83.23;99330.09;5019503;28;20140;-79
2021/03/11 07:01:25;;;;;;;21.67;4.60;;;;;;;9.39;82.32;99329.25;5018773;28;19964;-79
2021/03/11 07:03:51;;;;;;;19.97;4.00;;;;;;;9.45;80.35;99330.16;5019002;28;20029;-80
2021/03/11 07:06:38;;;;;;;27.10;4.03;;;;;;;9.75;78.94;99315.69;5018583;28;20029;-80
2021/03/11 07:09:05;;;;;;;21.80;4.25;;;;;;;9.97;76.05;99322.56;5036521;28;20060;-82
2021/03/11 07:11:31;;;;;;;32.05;4.55;;;;;;;10.04;75.93;99333.69;5019348;28;20025;-79
2021/03/11 07:13:58;;;;;;;31.08;5.20;;;;;;;9.93;74.89;99331.97;5018156;28;20025;-83
2021/03/11 07:16:26;;;;;;;39.33;5.77;;;;;;;10.07;75.41;99318.31;5036395;28;20028;-79
2021/03/11 07:19:18;;;;;;;35.13;5.33;;;;;;;10.26;74.71;99320.09;5018401;28;20025;-80
2021/03/11 07:21:51;;;;;;;36.17;5.93;;;;;;;10.06;74.41;99309.75;5016580;28;20026;-80
2021/03/11 07:24:32;;;;;;;34.33;5.90;;;;;;;9.75;75.82;99316.53;5016639;28;20389;-81
2021/03/11 07:27:02;;;;;;;37.13;7.05;;;;;;;9.64;75.46;99325.91;5017172;28;20025;-78
2021/03/11 07:29:28;;;;;;;35.90;5.77;;;;;;;9.52;76.49;99318.19;5034742;28;20029;-78
2021/03/11 07:32:00;;;;;;;33.13;4.97;;;;;;;9.59;76.78;99322.50;5016514;28;20026;-80
2021/03/11 07:34:32;;;;;;;39.40;6.20;;;;;;;9.65;76.56;99305.41;5017831;28;20029;-78
2021/03/11 07:36:59;;;;;;;42.00;5.87;;;;;;;9.64;76.43;99320.78;5017224;28;20049;-77
2021/03/11 07:39:43;;;;;;;42.63;5.67;;;;;;;9.64;76.19;99301.13;5017604;28;20032;-79
2021/03/11 07:42:09;;;;;;;33.67;5.30;;;;;;;9.64;76.29;99306.25;5034823;28;20091;-78
2021/03/11 07:44:36;;;;;;;36.85;6.35;;;;;;;9.66;75.88;99293.44;5035312;28;20093;-79
2021/03/11 07:47:01;;;;;;;;;;;;;;;9.68;76.34;99300.28;5035686;28;20029;-79
2021/03/11 07:49:27;;;;;;;30.30;5.03;;;;;;;9.76;75.86;99287.50;5017700;28;20413;-80
2021/03/11 07:51:53;;;;;;;;;;;;;;;9.82;74.97;99305.47;5017106;28;20021;-78
2021/03/11 07:54:20;;;;;;;30.40;5.85;;;;;;;9.86;75.02;99285.81;5017218;28;19913;-79
2021/03/11 07:56:48;;;;;;;35.80;4.97;;;;;;;10.02;74.67;99259.31;5016983;28;20029;-79
2021/03/11 07:59:13;;;;;;;32.03;6.00;;;;;;;10.16;74.36;99285.84;5017106;28;20039;-78
2021/03/11 08:01:47;;;;;;;29.05;4.43;;;;;;;10.62;71.85;99270.41;5017036;28;20120;-80
2021/03/11 08:04:17;;;;;;;26.60;4.85;;;;;;;10.67;70.14;99255.00;5015614;28;20486;-81
2021/03/11 08:06:42;;;;;;;33.33;5.68;;;;;;;10.72;71.68;99261.84;5017511;28;20053;-78
2021/03/11 08:09:08;;;;;;;30.30;4.53;;;;;;;10.82;71.24;99276.38;5017262;28;20064;-80
2021/03/11 08:11:41;;;;;;;33.77;5.50;;;;;;;11.11;70.04;99293.44;5015022;28;20053;-79
2021/03/11 08:14:23;;;;;;;29.92;5.40;;;;;;;11.29;69.59;99300.19;5033577;28;20276;-78
2021/03/11 08:16:49;;;;;;;26.25;5.35;;;;;;;11.17;68.84;99283.97;5034539;28;20052;-79
2021/03/11 08:19:33;;;;;;;;;;;;;;;11.11;68.90;99296.84;5036585;28;20026;-80
2021/03/11 08:21:58;;;;;;;36.95;5.70;;;;;;;11.62;68.42;99296.63;5034220;28;19979;-80
2021/03/11 08:24:40;;;;;;;34.60;5.18;;;;;;;11.55;67.60;99300.94;5018267;28;20453;-79
2021/03/11 08:27:30;;;;;;;36.42;6.18;;;;;;;11.59;66.56;99300.06;5018890;28;20049;-80
2021/03/11 08:29:59;;;;;;;37.20;6.03;;;;;;;11.89;65.32;99300.78;5017014;28;20033;-79
2021/03/11 08:32:50;;;;;;;25.55;4.85;;;;;;;11.40;65.54;99295.91;5014842;28;20026;-79
2021/03/11 08:35:27;;;;;;;28.60;5.78;;;;;;;11.52;67.10;99282.97;5015442;28;20108;-80
2021/03/11 08:37:53;;;;;;;29.27;5.50;;;;;;;12.41;62.92;99290.97;5016232;28;20049;-78
2021/03/11 08:40:39;;;;;;;;;;;;;;;13.09;61.38;99261.06;5034537;28;20036;-80
2021/03/11 08:43:05;;;;;;;35.90;6.75;;;;;;;13.04;60.36;99261.13;5015916;28;20020;-80
2021/03/11 08:45:33;;;;;;;33.47;5.97;;;;;;;12.89;61.01;99266.44;5017164;28;20068;-78
2021/03/11 08:48:12;;;;;;;33.25;5.25;;;;;;;12.10;63.03;99292.94;5035131;28;20029;-78
2021/03/11 08:50:39;;;;;;;38.33;6.25;;;;;;;11.92;64.24;99285.31;5015358;28;20018;-77
2021/03/11 08:53:04;;;;;;;;;;;;;;;11.68;64.32;99282.00;5017910;28;20139;-79
2021/03/11 08:55:29;;;;;;;33.95;5.10;;;;;;;11.42;64.19;99289.03;5017639;28;20433;-79
2021/03/11 08:57:54;;;;;;;43.60;6.35;;;;;;;11.20;65.92;99265.97;5017235;28;20029;-80
2021/03/11 09:00:58;;;;;;;34.88;5.35;;;;;;;10.97;65.70;99290.88;5016868;28;20029;-79
2021/03/11 09:03:40;;;;;;;36.40;5.40;;;;;;;10.96;65.70;99301.16;5016896;28;20037;-78
2021/03/11 09:06:07;;;;;;;33.75;5.55;;;;;;;10.95;67.09;99277.19;5017910;28;20021;-78
2021/03/11 09:08:43;;;;;;;28.73;5.43;;;;;;;10.90;66.78;99314.88;5035748;28;20025;-79
2021/03/11 09:11:11;;;;;;;34.30;6.38;;;;;;;10.83;67.50;99293.50;5017306;28;20027;-80
2021/03/11 09:13:40;;;;;;;38.97;5.45;;;;;;;10.77;66.59;99262.69;5037011;28;20028;-79
2021/03/11 09:16:06;;;;;;;27.85;5.00;;;;;;;11.08;67.68;99276.31;5039579;28;20021;-82
2021/03/11 09:18:31;;;;;;;37.63;7.03;;;;;;;11.56;65.87;99283.81;5019931;28;20079;-81
2021/03/11 09:20:59;;;;;;;36.95;6.20;;;;;;;12.61;62.45;99272.72;5019277;28;20025;-82
2021/03/11 09:23:44;;;;;;;28.98;5.35;;;;;;;13.43;59.48;99287.31;5018840;28;20097;-79
2021/03/11 09:26:27;;;;;;;32.30;5.82;;;;;;;14.33;57.46;99281.69;5018888;28;20036;-81
2021/03/11 09:28:53;;;;;;;35.70;6.68;;;;;;;14.71;54.64;99282.78;5035623;28;20025;-80
2021/03/11 09:31:26;;;;;;;29.77;5.35;;;;;;;15.09;52.75;99276.03;5016366;28;20063;-81
2021/03/11 09:33:53;;;;;;;28.20;4.68;;;;;;;14.30;55.22;99284.28;5012308;28;20045;-78
2021/03/11 09:36:18;;;;;;;35.30;6.07;;;;;;;12.97;57.05;99298.13;5034925;28;20438;-79
2021/03/11 09:38:44;;;;;;;26.95;4.80;;;;;;;12.30;60.75;99298.75;5035354;28;20033;-79
2021/03/11 09:41:10;;;;;;;37.60;6.20;;;;;;;12.00;62.21;99275.81;5017340;28;20478;-78
2021/03/11 09:43:37;;;;;;;34.60;6.60;;;;;;;11.65;63.52;99287.16;5017752;28;20030;-79
2021/03/11 09:46:14;;;;;;;35.30;6.25;;;;;;;11.81;64.55;99293.97;5033937;28;20026;-78
2021/03/11 09:48:46;;;;;;;35.55;6.90;;;;;;;11.59;64.29;99306.94;5032946;28;20113;-81
2021/03/11 09:51:12;;;;;;;42.78;6.35;;;;;;;11.68;65.14;99314.59;5034279;28;20030;-78
2021/03/11 09:54:10;;;;;;;43.95;5.93;;;;;;;11.88;64.51;99293.94;5017102;28;20029;-81
2021/03/11 09:56:41;;;;;;;44.28;6.97;;;;;;;11.78;64.27;99324.03;4984364;28;20033;-82
2021/03/11 09:59:15;;;;;;;44.13;6.63;;;;;;;11.69;64.73;99303.44;5034895;28;20029;-78
2021/03/11 10:01:42;;;;;;;34.15;6.97;;;;;;;11.65;65.02;99318.03;5015083;28;20029;-79
2021/03/11 10:04:20;;;;;;;40.50;6.25;;;;;;;11.67;65.84;99324.03;5017819;28;20056;-79
2021/03/11 10:07:11;;;;;;;40.85;5.88;;;;;;;11.62;65.10;99343.78;5017366;28;20132;-80
2021/03/11 10:09:45;;;;;;;43.42;6.47;;;;;;;11.40;65.73;99319.88;5016300;28;20491;-79
2021/03/11 10:12:11;;;;;;;50.08;7.25;;;;;;;11.56;66.30;99341.22;5016926;28;20613;-80
2021/03/11 10:14:37;;;;;;;36.95;6.78;;;;;;;11.49;66.33;99352.41;5016695;28;20028;-79
2021/03/11 10:17:04;;;;;;;41.55;5.93;;;;;;;11.44;66.00;99344.72;5018036;28;20034;-80
2021/03/11 10:19:31;;;;;;;41.67;6.57;;;;;;;11.28;65.20;99324.19;5033259;28;20032;-78
2021/03/11 10:22:06;;;;;;;37.25;6.25;;;;;;;11.24;66.22;99343.91;5016077;28;20026;-80
2021/03/11 10:24:51;;;;;;;35.40;5.25;;;;;;;11.12;66.50;99337.13;5015804;28;20060;-79
2021/03/11 10:27:23;;;;;;;46.28;7.57;;;;;;;11.20;66.50;99347.38;5033863;28;20079;-77
2021/03/11 10:30:23;;;;;;;41.67;5.72;;;;;;;11.06;66.71;99346.56;5032932;28;20040;-79
2021/03/11 10:32:55;;;;;;;39.38;6.30;;;;;;;11.09;66.34;99342.25;5034289;28;20040;-79
2021/03/11 10:35:32;;;;;;;44.78;7.80;;;;;;;11.07;66.36;99353.41;5015399;28;20549;-77
2021/03/11 10:38:18;;;;;;;40.28;6.35;;;;;;;11.10;66.23;99348.25;5012782;28;20057;-78
2021/03/11 10:40:44;;;;;;;38.78;5.97;;;;;;;11.04;66.93;99379.09;5013726;28;20069;-79
2021/03/11 10:43:24;;;;;;;32.50;6.20;;;;;;;10.93;66.89;99366.25;5014316;28;20041;-79
2021/03/11 10:45:50;;;;;;;35.83;5.97;;;;;;;10.94;67.56;99395.38;5015197;28;20166;-81
2021/03/11 10:48:16;;;;;;;35.85;6.10;;;;;;;10.82;67.48;99376.56;5016298;28;20028;-82
2021/03/11 10:50:45;;;;;;;39.65;5.82;;;;;;;10.87;68.01;99386.84;5015663;28;20021;-79
2021/03/11 10:53:15;;;;;;;45.80;7.35;;;;;;;10.90;67.08;99409.94;5016148;28;20037;-78
2021/03/11 10:55:45;;;;;;;34.05;5.25;;;;;;;11.09;67.59;99388.53;5015465;28;20037;-78
2021/03/11 10:58:25;;;;;;;39.83;6.88;;;;;;;11.24;67.69;99408.19;5016728;28;20033;-78
2021/03/11 11:01:06;;;;;;;32.38;5.90;;;;;;;11.37;66.35;99393.56;5017608;28;20036;-79
2021/03/11 11:03:31;;;;;;;48.92;6.82;;;;;;;11.49;67.35;99406.41;5019107;28;20033;-78
2021/03/11 11:05:57;;;;;;;42.20;6.40;;;;;;;11.59;66.99;99415.81;5017423;28;20490;-78
2021/03/11 11:08:22;;;;;;;36.83;6.77;;;;;;;11.86;66.11;99403.72;5019046;28;20017;-77
2021/03/11 11:10:48;;;;;;;31.77;5.90;;;;;;;12.06;65.47;99417.38;5018440;28;20332;-78
2021/03/11 11:13:14;;;;;;;33.70;6.40;;;;;;;12.13;64.90;99421.63;5018047;28;20275;-78
2021/03/11 11:15:39;;;;;;;39.23;6.43;;;;;;;11.91;65.10;99448.31;5035610;28;20026;-79
2021/03/11 11:18:04;;;;;;;38.70;6.37;;;;;;;12.00;66.35;99458.56;5035691;28;20367;-77
2021/03/11 11:20:31;;;;;;;37.70;6.45;;;;;;;11.70;66.31;99452.63;5017230;28;20784;-77
2021/03/11 11:22:56;;;;;;;39.95;7.15;;;;;;;11.59;66.94;99456.09;5017936;28;20029;-77
2021/03/11 11:25:22;;;;;;;35.60;6.40;;;;;;;11.67;66.30;99462.94;5035754;28;20026;-76
2021/03/11 11:27:47;;;;;;;35.47;6.13;;;;;;;11.79;65.62;99470.66;5011318;28;20033;-76
2021/03/11 11:30:13;;;;;;;39.17;6.20;;;;;;;11.64;66.50;99483.50;5015534;28;20017;-77
2021/03/11 11:32:38;;;;;;;45.50;8.07;;;;;;;11.56;66.88;99498.13;5014519;28;20847;-77
2021/03/11 11:35:05;;;;;;;38.75;9.30;;;;;;;11.53;67.07;99493.84;5032842;28;20034;-76
2021/03/11 11:37:30;;;;;;;45.78;7.78;;;;;;;11.51;66.58;99513.56;5031247;28;20111;-75